Time;durP1;ratioP1;P1;durP2;ratioP2;P2;SDS_P1;SDS_P2;PMS_P1;PMS_P2;Temp;Humidity;BMP_temperature;BMP_pressure;BME280_temperature;BME280_humidity;BME280_pressure;Samples;Min_cycle;Max_cycle;Signal;HPM_P1;HPM_P2
2023/03/11 00:02:10;;;;;;;85.90;78.90;;;0.60;93.80;;;;;;4974287;28;20274;-89
2023/03/11 00:04:36;;;;;;;81.70;75.30;;;0.70;93.90;;;;;;4956789;28;20533;-89
2023/03/11 00:07:05;;;;;;;83.63;77.00;;;0.60;93.80;;;;;;4956625;28;20185;-89
2023/03/11 00:09:30;;;;;;;83.10;76.53;;;0.60;93.80;;;;;;4956735;28;20186;-89
2023/03/11 00:11:56;;;;;;;84.30;77.30;;;0.70;93.90;;;;;;4956699;28;20245;-89
2023/03/11 00:14:21;;;;;;;82.53;75.83;;;0.60;93.80;;;;;;4956630;28;20275;-89
2023/03/11 00:16:47;;;;;;;82.23;75.13;;;0.60;93.80;;;;;;4956577;28;20212;-89
2023/03/11 00:19:12;;;;;;;81.37;74.53;;;0.60;93.80;;;;;;4957491;28;20655;-89
2023/03/11 00:21:38;;;;;;;77.90;71.60;;;0.70;93.90;;;;;;4956642;28;20197;-89
2023/03/11 00:24:04;;;;;;;73.30;67.23;;;0.60;93.80;;;;;;4959248;28;20179;-89
2023/03/11 00:26:30;;;;;;;74.13;68.40;;;0.60;93.70;;;;;;4960847;28;20206;-89
2023/03/11 00:28:55;;;;;;;70.57;64.90;;;0.60;93.70;;;;;;4959972;28;20224;-89
2023/03/11 00:31:21;;;;;;;72.20;66.23;;;0.60;93.70;;;;;;4960030;28;20185;-89
2023/03/11 00:33:47;;;;;;;73.47;67.37;;;0.60;93.60;;;;;;4960030;28;20180;-89
2023/03/11 00:36:23;;;;;;;73.87;68.03;;;0.50;93.60;;;;;;4959817;28;20177;-89
2023/03/11 00:38:49;;;;;;;68.97;63.23;;;0.50;93.60;;;;;;4960024;28;20579;-89
2023/03/11 00:41:15;;;;;;;66.37;60.80;;;0.50;93.60;;;;;;4977060;28;20720;-89
2023/03/11 00:43:41;;;;;;;67.20;61.60;;;0.50;93.60;;;;;;4960129;28;20215;-89
2023/03/11 00:46:07;;;;;;;67.50;62.10;;;0.50;93.60;;;;;;4977136;28;20253;-90
2023/03/11 00:48:33;;;;;;;67.53;62.17;;;0.50;93.50;;;;;;4959625;28;20203;-89
2023/03/11 00:50:59;;;;;;;68.87;63.33;;;0.50;93.50;;;;;;4959647;28;20189;-89
2023/03/11 00:53:24;;;;;;;67.43;62.13;;;0.40;93.40;;;;;;4959961;28;20193;-89
2023/03/11 00:55:50;;;;;;;68.93;63.17;;;0.40;93.40;;;;;;4977131;28;20592;-89
2023/03/11 00:58:15;;;;;;;67.03;61.47;;;0.40;93.40;;;;;;4959476;28;20302;-89
2023/03/11 01:00:41;;;;;;;67.50;61.80;;;0.40;93.30;;;;;;4959487;28;20224;-89
2023/03/11 01:03:06;;;;;;;66.47;60.67;;;0.40;93.30;;;;;;4959807;28;20654;-90
2023/03/11 01:05:33;;;;;;;64.73;59.47;;;0.40;93.30;;;;;;4959485;28;20185;-89
2023/03/11 01:07:59;;;;;;;64.03;58.73;;;0.40;93.20;;;;;;4976623;28;20204;-89
2023/03/11 01:10:25;;;;;;;65.07;59.73;;;0.30;93.10;;;;;;4960030;28;20613;-89
2023/03/11 01:12:51;;;;;;;65.40;60.00;;;0.30;93.20;;;;;;4959310;28;20185;-89
2023/03/11 01:15:29;;;;;;;65.30;59.70;;;0.30;93.20;;;;;;4959340;28;20645;-89
2023/03/11 01:17:55;;;;;;;60.77;55.50;;;0.30;93.10;;;;;;4959081;28;20218;-89
2023/03/11 01:20:21;;;;;;;65.47;60.07;;;0.30;93.10;;;;;;4959076;28;20187;-89
2023/03/11 01:22:47;;;;;;;63.17;58.03;;;0.30;93.10;;;;;;4976365;28;20179;-89
2023/03/11 01:25:16;;;;;;;64.83;59.60;;;0.40;93.10;;;;;;4958979;28;20192;-89
2023/03/11 01:27:41;;;;;;;65.33;59.63;;;0.30;93.00;;;;;;4958971;28;20586;-89
2023/03/11 01:30:08;;;;;;;66.13;60.47;;;0.30;93.00;;;;;;4958880;28;20176;-89
2023/03/11 01:32:34;;;;;;;64.70;59.20;;;0.30;93.00;;;;;;4958791;28;20409;-89
2023/03/11 01:34:59;;;;;;;65.73;60.33;;;0.30;92.90;;;;;;4958803;28;20202;-89
2023/03/11 01:37:25;;;;;;;63.97;58.47;;;0.30;92.90;;;;;;4958669;28;20225;-89
2023/03/11 01:39:50;;;;;;;65.07;59.57;;;0.30;92.90;;;;;;4976059;28;20184;-89
2023/03/11 01:42:16;;;;;;;64.83;59.43;;;0.30;92.90;;;;;;4976012;28;20211;-89
2023/03/11 01:44:42;;;;;;;63.20;57.53;;;0.20;92.70;;;;;;4976018;28;20594;-89
2023/03/11 01:47:10;;;;;;;63.37;58.13;;;0.10;92.80;;;;;;4958616;28;20205;-89
2023/03/11 01:49:40;;;;;;;64.87;58.97;;;0.10;92.90;;;;;;4958579;28;20556;-89
2023/03/11 01:52:07;;;;;;;58.23;53.20;;;0.10;92.80;;;;;;4958613;28;20192;-89
2023/03/11 01:54:35;;;;;;;63.47;58.07;;;0.10;92.80;;;;;;4958527;28;20185;-89
2023/03/11 01:57:06;;;;;;;61.60;56.43;;;0.10;92.80;;;;;;4958617;28;20206;-89
2023/03/11 01:59:37;;;;;;;61.30;56.10;;;0.10;92.80;;;;;;4975706;28;20532;-89
2023/03/11 02:02:17;;;;;;;57.90;53.13;;;0.00;92.80;;;;;;4975805;28;20163;-89
2023/03/11 02:04:43;;;;;;;59.20;54.17;;;0.00;92.70;;;;;;4975667;28;20201;-89
2023/03/11 02:07:10;;;;;;;58.80;53.83;;;0.00;92.80;;;;;;4975660;28;20216;-89
2023/03/11 02:09:36;;;;;;;57.43;52.60;;;0.00;92.80;;;;;;4958235;28;20276;-89
2023/03/11 02:12:03;;;;;;;58.03;53.03;;;0.00;92.90;;;;;;4975374;28;20272;-89
2023/03/11 02:14:30;;;;;;;55.40;50.80;;;0.00;92.90;;;;;;4975382;28;20275;-89
2023/03/11 02:16:57;;;;;;;55.90;51.20;;;0.00;93.00;;;;;;4957953;28;20204;-89
2023/03/11 02:19:43;;;;;;;57.45;52.75;;;0.00;92.90;;;;;;4975479;28;20656;-89
2023/03/11 02:22:10;;;;;;;58.23;53.20;;;0.00;92.90;;;;;;4975339;28;20160;-89
2023/03/11 02:24:54;;;;;;;54.97;50.40;;;0.00;92.90;;;;;;4958411;28;20592;-89
2023/03/11 02:27:22;;;;;;;54.10;49.80;;;0.10;92.90;;;;;;4957821;28;20205;-89
2023/03/11 02:29:50;;;;;;;54.07;49.77;;;0.00;92.90;;;;;;4975111;28;20704;-89
2023/03/11 02:32:16;;;;;;;53.60;49.30;;;0.10;92.90;;;;;;4975055;28;20241;-89
2023/03/11 02:34:42;;;;;;;56.33;51.87;;;0.20;93.00;;;;;;4974975;28;20205;-89
2023/03/11 02:37:10;;;;;;;53.33;49.13;;;0.20;93.00;;;;;;4974892;28;20640;-89
2023/03/11 02:39:41;;;;;;;54.90;50.50;;;0.20;92.90;;;;;;4975063;28;20648;-89
2023/03/11 02:42:20;;;;;;;53.20;49.07;;;0.20;93.00;;;;;;4975168;28;20171;-89
2023/03/11 02:44:53;;;;;;;52.37;48.37;;;0.20;92.90;;;;;;4975029;28;20257;-89
2023/03/11 02:47:19;;;;;;;54.67;50.43;;;0.20;92.90;;;;;;4957501;28;20224;-89
2023/03/11 02:49:44;;;;;;;53.50;49.40;;;0.20;92.90;;;;;;4974816;28;20568;-89
2023/03/11 02:52:11;;;;;;;51.20;47.30;;;0.20;92.80;;;;;;4974729;28;20201;-89
2023/03/11 02:54:37;;;;;;;52.57;48.40;;;0.20;92.80;;;;;;4975059;28;20179;-89
2023/03/11 02:57:03;;;;;;;52.70;48.50;;;0.10;92.70;;;;;;4974624;28;20214;-89
2023/03/11 02:59:28;;;;;;;53.00;48.80;;;0.10;92.80;;;;;;4974947;28;20182;-89
2023/03/11 03:01:54;;;;;;;53.03;48.93;;;0.20;92.70;;;;;;4974914;28;20173;-89
2023/03/11 03:04:20;;;;;;;49.13;45.23;;;0.10;92.70;;;;;;4974672;28;20641;-89
2023/03/11 03:06:45;;;;;;;48.37;44.37;;;0.20;92.70;;;;;;4957246;28;20650;-89
2023/03/11 03:09:11;;;;;;;42.57;39.17;;;0.10;92.70;;;;;;4957326;28;20648;-89
2023/03/11 03:11:36;;;;;;;45.93;42.33;;;0.20;92.70;;;;;;4974471;28;20186;-89
2023/03/11 03:14:02;;;;;;;42.90;39.43;;;0.10;92.60;;;;;;4974525;28;20177;-89
2023/03/11 03:16:27;;;;;;;46.53;42.73;;;0.10;92.60;;;;;;4957152;28;20184;-89
2023/03/11 03:18:53;;;;;;;46.40;42.83;;;0.00;92.50;;;;;;4974838;28;20248;-89
2023/03/11 03:21:19;;;;;;;45.20;41.60;;;0.00;92.50;;;;;;4957120;28;20190;-89
2023/03/11 03:23:44;;;;;;;42.50;39.13;;;0.00;92.50;;;;;;4974402;28;20185;-89
2023/03/11 03:26:12;;;;;;;42.60;39.20;;;0.00;92.50;;;;;;4974663;28;20179;-89
2023/03/11 03:28:38;;;;;;;41.27;38.17;;;0.00;92.50;;;;;;4974367;28;20792;-89
2023/03/11 03:31:08;;;;;;;41.57;38.43;;;0.00;92.30;;;;;;4974358;28;20178;-89
2023/03/11 03:33:34;;;;;;;42.53;39.07;;;0.00;92.40;;;;;;4974413;28;20174;-89
2023/03/11 03:36:00;;;;;;;40.00;37.07;;;-0.10;92.20;;;;;;4974233;28;20181;-89
2023/03/11 03:38:25;;;;;;;40.73;37.83;;;-0.20;92.20;;;;;;4957509;28;20221;-89
2023/03/11 03:40:51;;;;;;;39.83;36.63;;;-0.20;92.20;;;;;;4957155;28;20656;-89
2023/03/11 03:43:16;;;;;;;39.03;35.93;;;-0.10;92.30;;;;;;4956932;28;20655;-89
2023/03/11 03:45:42;;;;;;;40.27;36.93;;;-0.10;92.20;;;;;;4974153;28;20655;-89
2023/03/11 03:48:07;;;;;;;39.80;36.67;;;-0.10;92.20;;;;;;4974127;28;20200;-89
2023/03/11 03:50:33;;;;;;;39.90;37.00;;;-0.10;92.10;;;;;;4974385;28;20193;-89
2023/03/11 03:52:58;;;;;;;39.20;36.03;;;-0.10;92.10;;;;;;4974188;28;20208;-89
2023/03/11 03:55:24;;;;;;;38.90;35.90;;;-0.20;92.10;;;;;;4974335;28;20641;-89
2023/03/11 03:57:49;;;;;;;37.37;34.17;;;-0.20;92.10;;;;;;4974921;28;20217;-89
2023/03/11 04:00:16;;;;;;;37.87;34.90;;;-0.10;92.10;;;;;;4978162;28;20185;-89
2023/03/11 04:02:41;;;;;;;37.27;34.37;;;-0.10;92.10;;;;;;4978096;28;20724;-89
2023/03/11 04:05:07;;;;;;;37.00;34.03;;;-0.10;92.00;;;;;;4978282;28;20209;-89
2023/03/11 04:07:34;;;;;;;37.60;34.53;;;-0.20;91.90;;;;;;4977934;28;20205;-89
2023/03/11 04:10:00;;;;;;;37.83;34.50;;;-0.30;91.80;;;;;;4977916;28;20597;-89
2023/03/11 04:12:25;;;;;;;37.27;34.17;;;-0.20;91.90;;;;;;4977720;28;20214;-89
2023/03/11 04:14:51;;;;;;;38.03;34.60;;;-0.10;92.00;;;;;;4977574;28;20184;-89
2023/03/11 04:17:17;;;;;;;38.87;35.47;;;-0.20;91.80;;;;;;4977681;28;20296;-89
2023/03/11 04:19:43;;;;;;;39.23;35.93;;;-0.20;91.80;;;;;;4977729;28;20182;-89
2023/03/11 04:22:08;;;;;;;37.20;34.20;;;-0.20;91.80;;;;;;4977829;28;20187;-89
2023/03/11 04:24:34;;;;;;;36.07;33.10;;;-0.20;91.70;;;;;;4960088;28;20664;-89
2023/03/11 04:27:00;;;;;;;35.37;32.47;;;-0.20;91.70;;;;;;4977401;28;20184;-89
2023/03/11 04:29:25;;;;;;;34.27;30.73;;;-0.30;91.60;;;;;;4977331;28;20207;-89
2023/03/11 04:31:51;;;;;;;37.97;34.80;;;-0.30;91.60;;;;;;4977327;28;20202;-89
2023/03/11 04:34:16;;;;;;;33.37;30.63;;;-0.20;91.60;;;;;;4959953;28;20182;-89
2023/03/11 04:36:42;;;;;;;36.60;33.70;;;-0.20;91.60;;;;;;4977143;28;20208;-89
2023/03/11 04:39:07;;;;;;;34.13;31.30;;;-0.20;91.60;;;;;;4977402;28;20202;-89
2023/03/11 04:41:33;;;;;;;33.73;31.03;;;-0.30;91.50;;;;;;4959822;28;20558;-89
2023/03/11 04:43:59;;;;;;;34.23;31.37;;;-0.30;91.50;;;;;;4977110;28;20181;-89
2023/03/11 04:46:25;;;;;;;35.00;32.17;;;-0.20;91.50;;;;;;4977020;28;20540;-89
2023/03/11 04:48:50;;;;;;;32.90;30.20;;;-0.30;91.40;;;;;;4977006;28;20206;-89
2023/03/11 04:51:16;;;;;;;34.50;31.80;;;-0.30;91.40;;;;;;4976999;28;20181;-89
2023/03/11 04:53:41;;;;;;;33.90;31.10;;;-0.30;91.40;;;;;;4959845;28;20309;-89
2023/03/11 04:56:07;;;;;;;34.07;31.37;;;-0.30;91.30;;;;;;4976924;28;20173;-89
2023/03/11 04:58:33;;;;;;;35.47;32.57;;;-0.30;91.30;;;;;;4976684;28;20262;-89
2023/03/11 05:00:58;;;;;;;36.27;33.20;;;-0.30;91.20;;;;;;4976812;28;20241;-89
2023/03/11 05:03:24;;;;;;;38.00;34.97;;;-0.30;91.30;;;;;;4976733;28;20186;-89
2023/03/11 05:05:51;;;;;;;37.60;34.53;;;-0.40;91.30;;;;;;4977014;28;20239;-89
2023/03/11 05:08:17;;;;;;;37.13;34.23;;;-0.30;91.40;;;;;;4976207;28;20676;-89
2023/03/11 05:10:43;;;;;;;37.40;34.50;;;-0.30;91.40;;;;;;4976761;28;20272;-89
2023/03/11 05:13:11;;;;;;;38.00;35.00;;;-0.30;91.40;;;;;;4976758;28;20334;-89
2023/03/11 05:15:37;;;;;;;39.23;35.90;;;-0.30;91.50;;;;;;4976581;28;20196;-89
2023/03/11 05:18:04;;;;;;;37.10;33.90;;;-0.30;91.60;;;;;;4959061;28;20304;-89
2023/03/11 05:20:31;;;;;;;37.53;34.30;;;-0.20;91.70;;;;;;4959222;28;20181;-89
2023/03/11 05:22:56;;;;;;;38.47;35.30;;;-0.10;91.70;;;;;;4976378;28;20171;-89
2023/03/11 05:25:22;;;;;;;37.83;34.57;;;-0.20;91.70;;;;;;4976425;28;20540;-89
2023/03/11 05:27:47;;;;;;;38.47;35.27;;;-0.20;91.70;;;;;;4976500;28;20280;-89
2023/03/11 05:30:14;;;;;;;39.77;36.23;;;-0.10;91.80;;;;;;4976186;28;20184;-89
2023/03/11 05:32:39;;;;;;;39.17;35.57;;;-0.10;91.70;;;;;;4976592;28;20538;-89
2023/03/11 05:35:05;;;;;;;37.63;33.77;;;-0.20;91.70;;;;;;4976121;28;20180;-89
2023/03/11 05:37:31;;;;;;;37.57;34.47;;;-0.20;91.60;;;;;;4976477;28;20618;-91
2023/03/11 05:39:57;;;;;;;37.40;34.27;;;-0.30;91.70;;;;;;4958834;28;20177;-89
2023/03/11 05:42:22;;;;;;;36.50;33.10;;;-0.30;91.60;;;;;;4976288;28;20685;-89
2023/03/11 05:44:48;;;;;;;37.00;33.90;;;-0.30;91.70;;;;;;4976038;28;20177;-90
2023/03/11 05:47:15;;;;;;;36.07;32.77;;;-0.30;91.60;;;;;;4975981;28;20200;-89
2023/03/11 05:49:40;;;;;;;35.50;32.57;;;-0.30;91.60;;;;;;4958624;28;20185;-89
2023/03/11 05:52:06;;;;;;;35.53;32.60;;;-0.30;91.50;;;;;;4976084;28;20200;-89
2023/03/11 05:54:31;;;;;;;36.13;33.00;;;-0.30;91.60;;;;;;4976410;28;20547;-88
2023/03/11 05:56:57;;;;;;;32.67;29.70;;;-0.30;91.50;;;;;;4975960;28;20206;-88
2023/03/11 05:59:22;;;;;;;31.97;29.27;;;-0.30;91.50;;;;;;4976040;28;20176;-89
2023/03/11 06:01:48;;;;;;;31.67;29.10;;;-0.30;91.40;;;;;;4976233;28;20179;-89
2023/03/11 06:04:13;;;;;;;31.43;28.87;;;-0.30;91.40;;;;;;4975641;28;20178;-89
2023/03/11 06:06:40;;;;;;;31.53;28.93;;;-0.30;91.40;;;;;;4979037;28;20648;-91
2023/03/11 06:09:06;;;;;;;30.17;27.77;;;-0.20;91.40;;;;;;4959729;28;20198;-92
2023/03/11 06:11:31;;;;;;;30.60;28.20;;;-0.30;91.40;;;;;;4959231;28;20236;-89
2023/03/11 06:13:57;;;;;;;28.67;26.23;;;-0.20;91.40;;;;;;4975572;28;20182;-89
2023/03/11 06:16:24;;;;;;;28.60;26.07;;;-0.30;91.30;;;;;;4975905;28;20181;-88
2023/03/11 06:18:51;;;;;;;30.63;28.03;;;-0.30;91.30;;;;;;4958011;28;20194;-89
2023/03/11 06:21:18;;;;;;;29.63;27.20;;;-0.30;91.30;;;;;;4974548;28;20170;-88
2023/03/11 06:23:44;;;;;;;30.10;27.47;;;-0.30;91.20;;;;;;4957924;28;20181;-89
2023/03/11 06:26:12;;;;;;;29.20;26.67;;;-0.30;91.20;;;;;;4975508;28;20170;-88
2023/03/11 06:28:38;;;;;;;26.90;24.40;;;-0.40;91.20;;;;;;4975177;28;20198;-90
2023/03/11 06:31:14;;;;;;;26.87;24.37;;;-0.40;91.10;;;;;;4975220;28;20186;-88
2023/03/11 06:33:39;;;;;;;26.50;24.10;;;-0.40;91.10;;;;;;4975463;28;20168;-89
2023/03/11 06:36:05;;;;;;;28.37;25.63;;;-0.40;91.10;;;;;;4975082;28;20186;-88
2023/03/11 06:38:32;;;;;;;28.73;26.33;;;-0.40;91.00;;;;;;4958402;28;20212;-88
2023/03/11 06:41:03;;;;;;;29.30;26.30;;;-0.40;91.00;;;;;;4957809;28;20221;-89
2023/03/11 06:43:30;;;;;;;28.67;26.37;;;-0.40;91.00;;;;;;4975215;28;20174;-89
2023/03/11 06:45:56;;;;;;;29.57;26.93;;;-0.30;91.10;;;;;;4974943;28;20269;-89
2023/03/11 06:48:21;;;;;;;28.77;26.47;;;-0.40;91.00;;;;;;4974759;28;20268;-89
2023/03/11 06:50:55;;;;;;;29.63;27.03;;;-0.30;91.00;;;;;;4974893;28;20242;-88
2023/03/11 06:53:21;;;;;;;31.17;28.40;;;-0.30;91.00;;;;;;4974738;28;20221;-90
2023/03/11 06:56:01;;;;;;;29.83;27.40;;;-0.30;91.00;;;;;;4974666;28;20220;-90
2023/03/11 06:58:27;;;;;;;29.50;26.90;;;-0.20;90.90;;;;;;4974690;28;20210;-90
2023/03/11 07:00:52;;;;;;;30.27;27.87;;;-0.20;90.90;;;;;;4957508;28;20674;-89
2023/03/11 07:03:18;;;;;;;30.83;28.27;;;-0.20;90.80;;;;;;4974656;28;20671;-88
2023/03/11 07:05:44;;;;;;;29.70;27.47;;;-0.10;90.80;;;;;;4957221;28;20237;-88
2023/03/11 07:08:10;;;;;;;30.73;28.33;;;-0.10;90.80;;;;;;4957285;28;20213;-89
2023/03/11 07:10:35;;;;;;;31.13;28.73;;;-0.10;90.70;;;;;;4957395;28;20184;-88
2023/03/11 07:13:01;;;;;;;31.73;29.10;;;-0.10;90.60;;;;;;4957180;28;20192;-88
2023/03/11 07:15:27;;;;;;;29.37;27.07;;;-0.10;90.60;;;;;;4957156;28;20217;-88
2023/03/11 07:17:53;;;;;;;29.27;27.17;;;-0.10;90.60;;;;;;4957054;28;20225;-90
2023/03/11 07:20:18;;;;;;;28.73;26.53;;;0.00;90.60;;;;;;4974467;28;20189;-89
2023/03/11 07:22:44;;;;;;;29.47;27.07;;;0.00;90.50;;;;;;4957558;28;20186;-90
2023/03/11 07:25:09;;;;;;;30.57;28.17;;;0.00;90.30;;;;;;4974320;28;20179;-88
2023/03/11 07:27:35;;;;;;;29.53;27.27;;;0.00;90.30;;;;;;4974452;28;20198;-89
2023/03/11 07:30:01;;;;;;;30.63;28.03;;;0.00;90.30;;;;;;4974618;28;20182;-89
2023/03/11 07:34:53;;;;;;;29.30;26.97;;;0.00;90.10;;;;;;4997688;23;20296;-92
2023/03/11 07:37:18;;;;;;;26.20;24.00;;;0.00;90.10;;;;;;4979753;28;20209;-92
2023/03/11 07:39:47;;;;;;;25.03;22.90;;;0.00;90.10;;;;;;4962140;28;20176;-91
2023/03/11 07:42:12;;;;;;;26.80;24.70;;;0.00;90.10;;;;;;4961982;28;20261;-92
2023/03/11 07:44:38;;;;;;;27.43;25.30;;;0.00;90.10;;;;;;4979125;28;20227;-92
2023/03/11 07:47:04;;;;;;;26.87;24.57;;;0.00;90.10;;;;;;4962335;28;20185;-92
2023/03/11 07:49:30;;;;;;;27.47;25.43;;;0.00;90.10;;;;;;4962202;28;20190;-92
2023/03/11 07:51:56;;;;;;;25.37;23.37;;;0.10;90.10;;;;;;4962201;28;20217;-91
2023/03/11 07:54:21;;;;;;;34.60;31.83;;;0.10;90.00;;;;;;4961783;28;20711;-92
2023/03/11 07:56:47;;;;;;;35.30;32.57;;;0.10;89.90;;;;;;4962139;28;20690;-92
2023/03/11 07:59:12;;;;;;;33.17;30.77;;;0.20;89.90;;;;;;4961983;28;20236;-92
2023/03/11 08:01:40;;;;;;;33.53;31.07;;;0.20;89.80;;;;;;4965955;28;20179;-92
2023/03/11 08:04:08;;;;;;;33.50;30.97;;;0.30;89.80;;;;;;4974084;28;20208;-93
2023/03/11 08:06:35;;;;;;;31.93;29.83;;;0.30;89.50;;;;;;4972716;28;20205;-93
2023/03/11 08:09:04;;;;;;;31.70;28.97;;;0.30;89.40;;;;;;4973846;28;20186;-93
2023/03/11 08:11:30;;;;;;;32.17;29.00;;;0.30;89.20;;;;;;4971781;28;20234;-92
2023/03/11 08:13:56;;;;;;;29.13;26.70;;;0.40;88.90;;;;;;4982729;28;20691;-93
2023/03/11 08:16:23;;;;;;;31.00;28.70;;;0.50;88.50;;;;;;4964133;28;20258;-91
2023/03/11 08:18:49;;;;;;;26.80;24.80;;;0.60;88.30;;;;;;4962932;28;20182;-92
2023/03/11 08:21:19;;;;;;;29.73;27.63;;;0.60;88.10;;;;;;4961605;28;20192;-92
2023/03/11 08:23:47;;;;;;;31.47;28.70;;;0.60;88.10;;;;;;4961365;28;20267;-92
2023/03/11 08:26:16;;;;;;;28.37;26.27;;;0.70;88.00;;;;;;4962454;28;20651;-92
2023/03/11 08:28:42;;;;;;;28.23;26.03;;;0.80;87.80;;;;;;4962268;28;20209;-94
2023/03/11 08:31:13;;;;;;;29.23;26.90;;;0.90;87.50;;;;;;4961853;28;20549;-93
2023/03/11 08:33:39;;;;;;;30.50;28.40;;;1.00;87.60;;;;;;4961556;28;20222;-92
2023/03/11 08:36:04;;;;;;;31.47;28.70;;;1.00;88.00;;;;;;4962919;28;20182;-93
2023/03/11 08:38:30;;;;;;;30.50;27.93;;;1.00;88.50;;;;;;4964542;28;20214;-93
2023/03/11 08:40:55;;;;;;;27.50;25.47;;;1.00;89.00;;;;;;4964760;28;20634;-92
2023/03/11 08:43:21;;;;;;;28.87;26.47;;;0.90;89.00;;;;;;4964519;28;20202;-92
2023/03/11 08:45:46;;;;;;;29.90;27.50;;;0.90;88.80;;;;;;4965953;28;20178;-92
2023/03/11 08:48:12;;;;;;;29.97;27.77;;;0.90;88.50;;;;;;4966626;28;20265;-92
2023/03/11 08:50:42;;;;;;;29.67;27.33;;;1.00;88.30;;;;;;4983057;28;20175;-92
2023/03/11 08:53:08;;;;;;;27.30;25.33;;;1.00;87.70;;;;;;4962839;28;20202;-92
2023/03/11 08:55:34;;;;;;;29.10;26.67;;;1.00;87.10;;;;;;4961877;28;20188;-92
2023/03/11 08:57:59;;;;;;;28.03;25.80;;;1.10;86.10;;;;;;4961807;28;20272;-93
2023/03/11 09:00:25;;;;;;;26.43;24.63;;;1.10;84.90;;;;;;4961405;28;20236;-92
2023/03/11 09:02:51;;;;;;;27.67;25.77;;;1.20;85.10;;;;;;4961140;28;20278;-92
2023/03/11 09:05:16;;;;;;;26.83;24.97;;;1.30;85.10;;;;;;4960855;28;20179;-91
2023/03/11 09:07:42;;;;;;;27.83;25.50;;;1.30;84.50;;;;;;4960542;28;20243;-92
2023/03/11 09:10:10;;;;;;;30.13;27.40;;;1.40;84.90;;;;;;4962062;28;20525;-92
2023/03/11 09:12:35;;;;;;;26.13;24.13;;;1.50;85.60;;;;;;4961704;28;20193;-92
2023/03/11 09:15:01;;;;;;;26.87;25.03;;;1.30;86.30;;;;;;4960877;28;20281;-91
2023/03/11 09:17:26;;;;;;;27.80;25.47;;;1.40;86.60;;;;;;4960949;28;20224;-92
2023/03/11 09:19:52;;;;;;;28.33;26.30;;;1.40;86.60;;;;;;4960508;28;20185;-94
2023/03/11 09:22:17;;;;;;;24.40;22.40;;;1.50;86.50;;;;;;4961246;28;20178;-91
2023/03/11 09:24:43;;;;;;;24.40;22.37;;;1.50;86.70;;;;;;4960721;28;20552;-92
2023/03/11 09:27:09;;;;;;;23.97;22.07;;;1.60;86.60;;;;;;4960632;28;20194;-92
2023/03/11 09:29:35;;;;;;;23.90;21.97;;;1.60;86.40;;;;;;4960203;28;20264;-93
2023/03/11 09:32:00;;;;;;;24.57;22.67;;;1.60;85.90;;;;;;4960629;28;20228;-93
2023/03/11 09:34:26;;;;;;;26.90;24.43;;;1.80;86.10;;;;;;4961657;28;20216;-91
2023/03/11 09:36:52;;;;;;;26.47;24.37;;;1.80;85.70;;;;;;4962471;28;20218;-92
2023/03/11 09:39:17;;;;;;;25.87;23.97;;;1.90;85.90;;;;;;4962027;28;20560;-93
2023/03/11 09:41:50;;;;;;;25.17;23.50;;;1.90;86.00;;;;;;4965924;28;20178;-92
2023/03/11 09:44:48;;;;;;;26.87;24.83;;;1.90;86.30;;;;;;4965839;28;20256;-93
2023/03/11 09:47:36;;;;;;;24.63;22.73;;;2.10;86.70;;;;;;4969298;28;20179;-92
2023/03/11 09:50:30;;;;;;;24.53;22.63;;;1.90;86.60;;;;;;4984913;28;20167;-93
2023/03/11 09:53:09;;;;;;;24.67;22.83;;;2.00;86.50;;;;;;4967085;28;20211;-93
2023/03/11 09:55:54;;;;;;;26.40;24.57;;;2.00;86.20;;;;;;4968811;28;20189;-94
2023/03/11 09:58:40;;;;;;;27.27;25.17;;;2.10;86.50;;;;;;4972224;28;20209;-93
2023/03/11 10:01:26;;;;;;;26.40;24.60;;;2.30;86.90;;;;;;4970655;28;20224;-93
2023/03/11 10:03:56;;;;;;;26.20;24.17;;;2.30;86.90;;;;;;4972190;28;20194;-93
2023/03/11 10:06:28;;;;;;;27.70;25.10;;;2.30;86.40;;;;;;4971817;28;20178;-92
2023/03/11 10:09:08;;;;;;;24.97;22.87;;;2.40;86.60;;;;;;4963066;28;20552;-89
2023/03/11 10:11:53;;;;;;;25.50;23.53;;;2.40;86.80;;;;;;4959983;28;20209;-91
2023/03/11 10:14:38;;;;;;;26.27;24.27;;;2.60;86.70;;;;;;4961337;28;20222;-89
2023/03/11 10:17:29;;;;;;;24.37;22.47;;;2.80;86.80;;;;;;4958501;28;20680;-88
2023/03/11 10:20:19;;;;;;;24.60;22.70;;;2.80;85.60;;;;;;4958269;28;20171;-91
2023/03/11 10:23:06;;;;;;;26.33;23.50;;;2.90;85.20;;;;;;4958158;28;20180;-90
2023/03/11 10:25:59;;;;;;;25.17;23.37;;;3.00;84.90;;;;;;4958247;28;20626;-90
2023/03/11 10:28:38;;;;;;;25.33;23.40;;;3.30;85.40;;;;;;4958062;28;20175;-89
2023/03/11 10:31:26;;;;;;;25.13;23.27;;;3.20;84.00;;;;;;4959052;28;20322;-90
2023/03/11 10:33:58;;;;;;;25.83;23.93;;;3.40;84.50;;;;;;4958055;28;20233;-92
2023/03/11 10:36:28;;;;;;;26.33;24.37;;;3.40;83.40;;;;;;4958425;28;20183;-91
2023/03/11 10:38:54;;;;;;;25.80;23.60;;;3.50;82.40;;;;;;4958354;28;20525;-92
2023/03/11 10:41:34;;;;;;;25.37;23.57;;;3.70;83.10;;;;;;4958608;28;20660;-90
2023/03/11 10:44:13;;;;;;;26.20;23.90;;;3.80;82.40;;;;;;4959052;28;20526;-92
2023/03/11 10:46:38;;;;;;;25.93;23.93;;;3.80;81.70;;;;;;4958943;28;20261;-92
2023/03/11 10:49:12;;;;;;;25.63;23.93;;;4.00;81.80;;;;;;4958377;28;20208;-93
2023/03/11 10:51:38;;;;;;;26.53;24.17;;;4.10;81.40;;;;;;4958293;28;20171;-91
2023/03/11 10:54:04;;;;;;;21.37;19.70;;;4.10;80.70;;;;;;4958488;28;20201;-92
2023/03/11 10:56:34;;;;;;;21.13;19.23;;;4.40;81.00;;;;;;4958454;28;20176;-92
2023/03/11 10:59:00;;;;;;;21.97;20.07;;;4.80;81.40;;;;;;4958768;28;20172;-91
2023/03/11 11:01:28;;;;;;;22.93;21.13;;;4.70;79.90;;;;;;4958955;28;20247;-92
2023/03/11 11:03:56;;;;;;;22.43;20.67;;;4.60;79.40;;;;;;4958317;28;20283;-91
2023/03/11 11:06:28;;;;;;;29.10;26.50;;;4.60;79.50;;;;;;4957966;28;20181;-91
2023/03/11 11:09:12;;;;;;;27.67;25.30;;;4.80;77.50;;;;;;4958380;28;20669;-92
2023/03/11 11:11:38;;;;;;;26.07;24.33;;;4.80;76.40;;;;;;4958109;28;20271;-90
2023/03/11 11:14:04;;;;;;;23.67;21.80;;;4.80;75.90;;;;;;4957605;28;20230;-91
2023/03/11 11:16:32;;;;;;;22.83;20.97;;;4.70;75.00;;;;;;4958556;28;20289;-92
2023/03/11 11:19:14;;;;;;;21.40;19.97;;;4.90;76.40;;;;;;4958410;28;20206;-92
2023/03/11 11:21:51;;;;;;;22.10;20.07;;;4.90;75.00;;;;;;4958537;28;20280;-91
2023/03/11 11:24:23;;;;;;;22.67;20.60;;;5.10;75.30;;;;;;4958165;28;20612;-90
2023/03/11 11:27:17;;;;;;;22.03;19.93;;;4.90;72.70;;;;;;4959147;28;20185;-92
2023/03/11 11:29:43;;;;;;;20.93;19.27;;;4.90;74.50;;;;;;4957776;28;20185;-91
2023/03/11 11:32:20;;;;;;;19.23;17.90;;;5.00;74.40;;;;;;4974995;28;20188;-92
2023/03/11 11:34:56;;;;;;;20.00;18.33;;;5.10;74.30;;;;;;4958612;28;20229;-91
2023/03/11 11:37:22;;;;;;;20.87;19.07;;;5.30;75.80;;;;;;4957894;28;20209;-92
2023/03/11 11:39:51;;;;;;;21.40;19.63;;;5.30;75.50;;;;;;4958158;28;20182;-93
2023/03/11 11:42:18;;;;;;;21.20;19.30;;;5.30;74.50;;;;;;4957634;28;20182;-92
2023/03/11 11:44:49;;;;;;;21.07;18.90;;;5.30;74.30;;;;;;4957896;28;20205;-91
2023/03/11 11:47:34;;;;;;;19.07;17.50;;;5.50;73.70;;;;;;4975423;28;20163;-90
2023/03/11 11:50:10;;;;;;;20.33;18.43;;;5.50;73.80;;;;;;4958497;28;20188;-90
2023/03/11 11:52:43;;;;;;;19.43;17.57;;;5.20;73.40;;;;;;4957339;28;20181;-92
2023/03/11 11:55:28;;;;;;;19.17;17.53;;;5.30;75.00;;;;;;4957558;28;20597;-92
2023/03/11 11:57:53;;;;;;;19.53;17.80;;;5.30;73.90;;;;;;4957909;28;20212;-93
2023/03/11 12:00:24;;;;;;;20.03;18.30;;;5.20;73.50;;;;;;4958629;28;20181;-93
2023/03/11 12:02:52;;;;;;;18.40;16.97;;;5.40;73.10;;;;;;4959611;28;20229;-92
2023/03/11 12:05:28;;;;;;;18.30;16.90;;;5.70;73.20;;;;;;4959568;28;20185;-93
2023/03/11 12:08:26;;;;;;;18.30;16.80;;;5.80;73.70;;;;;;4965821;28;20170;-93
2023/03/11 12:11:18;;;;;;;19.63;17.50;;;5.90;73.90;;;;;;4961271;28;20185;-92
2023/03/11 12:14:02;;;;;;;19.07;17.50;;;6.00;72.80;;;;;;4958888;28;20203;-92
2023/03/11 12:16:48;;;;;;;19.07;17.77;;;6.10;72.60;;;;;;4958165;28;20604;-91
2023/03/11 12:19:24;;;;;;;20.17;18.63;;;6.00;71.60;;;;;;4958668;28;20195;-92
2023/03/11 12:22:37;;;;;;;20.20;18.57;;;5.60;72.00;;;;;;4961328;28;20171;-92
2023/03/11 12:25:39;;;;;;;21.00;19.40;;;5.80;71.50;;;;;;4926348;28;20187;-92
2023/03/11 12:28:17;;;;;;;20.50;19.07;;;6.10;70.80;;;;;;4961527;28;20179;-91
2023/03/11 12:30:49;;;;;;;20.47;18.53;;;6.10;70.70;;;;;;4961353;28;20182;-91
2023/03/11 12:33:23;;;;;;;19.57;18.17;;;6.20;69.80;;;;;;4961493;28;20695;-91
2023/03/11 12:35:56;;;;;;;19.87;18.27;;;6.20;68.90;;;;;;4960962;28;20278;-91
2023/03/11 12:38:35;;;;;;;25.57;23.70;;;5.90;68.90;;;;;;4960190;28;20209;-90
2023/03/11 12:41:24;;;;;;;25.80;23.83;;;6.00;70.70;;;;;;4961239;28;20237;-88
2023/03/11 12:43:50;;;;;;;20.60;19.30;;;6.00;68.60;;;;;;4960336;28;20254;-91
2023/03/11 12:46:16;;;;;;;18.17;16.97;;;6.00;66.80;;;;;;4960501;28;20175;-89